Terminal Aerodrome Forecast
Issued by NWS

Home | Current Version | Previous Version | Text Only | Print | Product List | Glossary On
Versions: 1 2 3 4 5 6 7 8 9 10 11 12 13 14 15
000
FTUS44 KLZK 311726
TAFHRO
TAF
KHRO 311726Z 3118/0118 16007KT P6SM SCT050 SCT250
     FM312100 15008KT P6SM VCSH SCT050 BKN250
     FM010100 15004KT P6SM SCT250
     FM011000 VRB03KT 4SM BR SKC
     FM011400 16005KT P6SM SCT250
      AMD NOT SKED=

USA.gov is the U.S. government's official web portal to all federal, state and local government web resources and services.